createdAt,value
2022-11-25T00:01:34.283Z,-0.20
2022-11-25T00:04:01.747Z,-0.10
2022-11-25T00:06:30.817Z,-0.10
2022-11-25T00:09:11.306Z,-0.10
2022-11-25T00:11:40.768Z,-0.10
2022-11-25T00:14:11.143Z,-0.10
2022-11-25T00:16:37.995Z,-0.10
2022-11-25T00:19:04.952Z,-0.10
2022-11-25T00:21:33.859Z,-0.10
2022-11-25T00:24:02.988Z,-0.20
2022-11-25T00:26:34.330Z,-0.20
2022-11-25T00:29:04.088Z,-0.10
2022-11-25T00:31:33.877Z,-0.10
2022-11-25T00:34:00.854Z,-0.20
2022-11-25T00:36:30.064Z,-0.10
2022-11-25T00:39:05.884Z,-0.10
2022-11-25T00:41:51.639Z,-0.10
2022-11-25T00:44:40.672Z,-0.10
2022-11-25T00:47:13.808Z,-0.20
2022-11-25T00:49:43.090Z,-0.10
2022-11-25T00:52:17.287Z,-0.20
2022-11-25T00:54:45.168Z,-0.10
2022-11-25T00:57:13.094Z,-0.20
2022-11-25T00:59:40.044Z,-0.20
2022-11-25T01:02:07.382Z,-0.20
2022-11-25T01:04:34.921Z,-0.20
2022-11-25T01:07:02.364Z,-0.20
2022-11-25T01:09:29.708Z,-0.20
2022-11-25T01:11:58.357Z,-0.20
2022-11-25T01:14:25.383Z,-0.20
2022-11-25T01:16:52.604Z,-0.20
2022-11-25T01:19:20.400Z,-0.20
2022-11-25T01:21:47.470Z,-0.20
2022-11-25T01:24:15.441Z,-0.20
2022-11-25T01:26:42.970Z,-0.20
2022-11-25T01:29:18.406Z,-0.20
2022-11-25T01:31:45.684Z,-0.20
2022-11-25T01:34:15.977Z,-0.20
2022-11-25T01:36:43.299Z,-0.20
2022-11-25T01:39:17.381Z,-0.20
2022-11-25T01:41:44.594Z,-0.30
2022-11-25T01:44:14.971Z,-0.20
2022-11-25T01:47:12.705Z,-0.20
2022-11-25T01:49:42.619Z,-0.30
2022-11-25T01:52:09.704Z,-0.30
2022-11-25T01:54:42.656Z,-0.30
2022-11-25T01:57:15.134Z,-0.30
2022-11-25T01:59:47.163Z,-0.30
2022-11-25T02:02:15.423Z,-0.30
2022-11-25T02:04:43.592Z,-0.30
2022-11-25T02:07:40.848Z,-0.40
2022-11-25T02:10:14.663Z,-0.30
2022-11-25T02:12:43.433Z,-0.40
2022-11-25T02:15:11.404Z,-0.40
2022-11-25T02:17:38.563Z,-0.40
2022-11-25T02:20:11.542Z,-0.30
2022-11-25T02:23:00.650Z,-0.30
2022-11-25T02:25:40.395Z,-0.30
2022-11-25T02:28:11.897Z,-0.30
2022-11-25T02:30:38.788Z,-0.30
2022-11-25T02:33:05.871Z,-0.30
2022-11-25T02:35:32.804Z,-0.30
2022-11-25T02:38:05.708Z,-0.30
2022-11-25T02:40:36.214Z,-0.30
2022-11-25T02:43:03.461Z,-0.30
2022-11-25T02:45:45.536Z,-0.30
2022-11-25T02:48:12.545Z,-0.30
2022-11-25T02:50:39.468Z,-0.30
2022-11-25T02:53:06.393Z,-0.30
2022-11-25T02:55:33.363Z,-0.30
2022-11-25T02:58:00.251Z,-0.30
2022-11-25T03:00:27.205Z,-0.30
2022-11-25T03:02:54.686Z,-0.30
2022-11-25T03:05:24.521Z,-0.30
2022-11-25T03:07:51.483Z,-0.40
2022-11-25T03:10:18.953Z,-0.30
2022-11-25T03:12:45.895Z,-0.40
2022-11-25T03:15:12.839Z,-0.30
2022-11-25T03:17:40.080Z,-0.30
2022-11-25T03:20:08.459Z,-0.30
2022-11-25T03:22:36.393Z,-0.40
2022-11-25T03:25:03.464Z,-0.40
2022-11-25T03:27:30.489Z,-0.40
2022-11-25T03:29:57.449Z,-0.40
2022-11-25T03:32:24.284Z,-0.30
2022-11-25T03:34:51.142Z,-0.30
2022-11-25T03:37:19.424Z,-0.30
2022-11-25T03:39:46.584Z,-0.40
2022-11-25T03:42:14.117Z,-0.30
2022-11-25T03:44:40.944Z,-0.30
2022-11-25T03:47:07.784Z,-0.30
2022-11-25T03:49:34.681Z,-0.30
2022-11-25T03:52:01.685Z,-0.30
2022-11-25T03:54:28.614Z,-0.30
2022-11-25T03:56:55.501Z,-0.30
2022-11-25T03:59:22.645Z,-0.40
2022-11-25T04:01:49.630Z,-0.40
2022-11-25T04:04:16.523Z,-0.40
2022-11-25T04:06:43.403Z,-0.40
2022-11-25T04:09:12.073Z,-0.40
2022-11-25T04:11:57.523Z,-0.30
2022-11-25T04:14:24.443Z,-0.40
2022-11-25T04:16:51.528Z,-0.40
2022-11-25T04:19:18.558Z,-0.50
2022-11-25T04:21:50.788Z,-0.40
2022-11-25T04:24:19.841Z,-0.40
2022-11-25T04:26:46.855Z,-0.40
2022-11-25T04:29:15.285Z,-0.50
2022-11-25T04:31:42.133Z,-0.40
2022-11-25T04:34:09.081Z,-0.40
2022-11-25T04:36:36.228Z,-0.40
2022-11-25T04:39:04.272Z,-0.40
2022-11-25T04:41:31.123Z,-0.40
2022-11-25T04:44:00.208Z,-0.50
2022-11-25T04:46:35.852Z,-0.40
2022-11-25T04:49:02.774Z,-0.50
2022-11-25T04:51:30.255Z,-0.50
2022-11-25T04:53:57.269Z,-0.50
2022-11-25T04:56:24.408Z,-0.50
2022-11-25T04:59:09.865Z,-0.50
2022-11-25T05:01:36.759Z,-0.50
2022-11-25T05:04:03.739Z,-0.50
2022-11-25T05:06:30.527Z,-0.50
2022-11-25T05:08:57.453Z,-0.50
2022-11-25T05:11:24.259Z,-0.50
2022-11-25T05:13:51.101Z,-0.50
2022-11-25T05:16:17.957Z,-0.50
2022-11-25T05:18:44.806Z,-0.50
2022-11-25T05:21:11.783Z,-0.50
2022-11-25T05:23:38.662Z,-0.60
2022-11-25T05:26:05.657Z,-0.60
2022-11-25T05:28:32.815Z,-0.60
2022-11-25T05:30:59.661Z,-0.60
2022-11-25T05:33:26.663Z,-0.60
2022-11-25T05:35:57.748Z,-0.60
2022-11-25T05:38:25.666Z,-0.60
2022-11-25T05:40:53.077Z,-0.50
2022-11-25T05:43:20.036Z,-0.50
2022-11-25T05:45:46.937Z,-0.50
2022-11-25T05:48:16.225Z,-0.50
2022-11-25T05:50:43.226Z,-0.50
2022-11-25T05:53:11.255Z,-0.50
2022-11-25T05:55:38.219Z,-0.50
2022-11-25T05:58:06.308Z,-0.50
2022-11-25T06:00:33.294Z,-0.50
2022-11-25T06:03:00.576Z,-0.50
2022-11-25T06:05:27.635Z,-0.40
2022-11-25T06:07:54.688Z,-0.40
2022-11-25T06:10:21.623Z,-0.40
2022-11-25T06:12:48.515Z,-0.40
2022-11-25T06:15:15.333Z,-0.40
2022-11-25T06:17:42.146Z,-0.40
2022-11-25T06:20:09.507Z,-0.40
2022-11-25T06:22:36.406Z,-0.40
2022-11-25T06:25:04.255Z,-0.40
2022-11-25T06:27:50.123Z,-0.40
2022-11-25T06:30:18.984Z,-0.40
2022-11-25T06:32:46.383Z,-0.40
2022-11-25T06:35:13.404Z,-0.30
2022-11-25T06:37:40.542Z,-0.30
2022-11-25T06:40:08.350Z,-0.30
2022-11-25T06:42:37.441Z,-0.30
2022-11-25T06:45:04.863Z,-0.30
2022-11-25T06:47:31.844Z,-0.30
2022-11-25T06:49:58.726Z,-0.30
2022-11-25T06:52:25.599Z,-0.30
2022-11-25T06:54:52.444Z,-0.30
2022-11-25T06:57:19.735Z,-0.30
2022-11-25T06:59:46.621Z,-0.30
2022-11-25T07:02:13.931Z,-0.30
2022-11-25T07:04:41.173Z,-0.30
2022-11-25T07:07:09.048Z,-0.30
2022-11-25T07:09:35.882Z,-0.20
2022-11-25T07:12:03.361Z,-0.30
2022-11-25T07:14:30.161Z,-0.30
2022-11-25T07:16:57.066Z,-0.30
2022-11-25T07:19:23.978Z,-0.40
2022-11-25T07:21:50.831Z,-0.40
2022-11-25T07:24:18.282Z,-0.30
2022-11-25T07:26:45.865Z,-0.30
2022-11-25T07:29:54.128Z,-0.20
2022-11-25T07:32:07.268Z,-0.30
2022-11-25T07:34:37.332Z,-0.30
2022-11-25T07:37:04.256Z,-0.30
2022-11-25T07:39:31.190Z,-0.20
2022-11-25T07:41:58.133Z,-0.30
2022-11-25T07:44:25.248Z,-0.20
2022-11-25T07:46:52.632Z,-0.20
2022-11-25T07:49:22.778Z,-0.20
2022-11-25T07:51:53.655Z,-0.20
2022-11-25T07:54:21.485Z,-0.20
2022-11-25T07:56:49.800Z,-0.20
2022-11-25T07:59:19.161Z,-0.30
2022-11-25T08:01:46.718Z,-0.30
2022-11-25T08:04:19.798Z,-0.30
2022-11-25T08:06:49.064Z,-0.30
2022-11-25T08:09:19.623Z,-0.30
2022-11-25T08:11:47.623Z,-0.30
2022-11-25T08:14:15.318Z,-0.20
2022-11-25T08:16:42.452Z,-0.20
2022-11-25T08:19:13.717Z,-0.20
2022-11-25T08:21:41.591Z,-0.20
2022-11-25T08:24:13.211Z,-0.20
2022-11-25T08:26:40.339Z,-0.20
2022-11-25T08:29:07.902Z,-0.20
2022-11-25T08:31:37.963Z,-0.20
2022-11-25T08:34:07.080Z,-0.20
2022-11-25T08:36:35.278Z,-0.20
2022-11-25T08:39:22.432Z,-0.10
2022-11-25T08:41:52.004Z,-0.10
2022-11-25T08:44:19.011Z,-0.20
2022-11-25T08:46:45.949Z,-0.20
2022-11-25T08:49:13.711Z,-0.20
2022-11-25T08:51:40.622Z,-0.10
2022-11-25T08:54:08.383Z,-0.10
2022-11-25T08:56:35.716Z,-0.20
2022-11-25T08:59:03.252Z,-0.20
2022-11-25T09:01:30.499Z,-0.10
2022-11-25T09:03:58.246Z,-0.10
2022-11-25T09:06:27.115Z,0.00
2022-11-25T09:08:58.675Z,0.10
2022-11-25T09:11:26.507Z,0.20
2022-11-25T09:13:53.847Z,0.20
2022-11-25T09:16:21.457Z,0.10
2022-11-25T09:18:54.081Z,0.00
2022-11-25T09:21:22.714Z,0.10
2022-11-25T09:23:51.135Z,0.10
2022-11-25T09:26:29.939Z,0.10
2022-11-25T09:28:57.310Z,0.10
2022-11-25T09:31:24.677Z,0.20
2022-11-25T09:33:51.737Z,0.30
2022-11-25T09:36:20.086Z,0.20
2022-11-25T09:38:47.452Z,0.20
2022-11-25T09:41:40.353Z,0.30
2022-11-25T09:44:51.088Z,0.20
2022-11-25T09:47:40.209Z,0.30
2022-11-25T09:50:31.867Z,0.10
2022-11-25T09:53:36.340Z,0.20
2022-11-25T09:56:06.947Z,0.20
2022-11-25T09:58:38.749Z,0.20
2022-11-25T10:01:12.225Z,0.30
2022-11-25T10:03:50.516Z,0.30
2022-11-25T10:06:25.204Z,0.30
2022-11-25T10:08:58.003Z,0.40
2022-11-25T10:11:46.422Z,0.30
2022-11-25T10:14:31.072Z,0.30
2022-11-25T10:16:57.825Z,0.30
2022-11-25T10:19:55.696Z,0.30
2022-11-25T10:22:34.362Z,0.30
2022-11-25T10:25:12.374Z,0.30
2022-11-25T10:27:42.370Z,0.30
2022-11-25T10:30:32.267Z,0.30
2022-11-25T10:33:18.887Z,0.30
2022-11-25T10:35:57.194Z,0.30
2022-11-25T10:38:35.336Z,0.20
2022-11-25T10:41:04.330Z,0.20
2022-11-25T10:43:33.633Z,0.20
2022-11-25T10:47:10.884Z,0.20
2022-11-25T10:49:36.175Z,0.30
2022-11-25T10:52:13.619Z,0.30
2022-11-25T10:54:41.476Z,0.30
2022-11-25T10:57:29.780Z,0.30
2022-11-25T10:59:58.787Z,0.30
2022-11-25T11:02:27.490Z,0.40
2022-11-25T11:05:19.853Z,0.40
2022-11-25T11:07:47.261Z,0.40
2022-11-25T11:10:20.431Z,0.40
2022-11-25T11:13:19.363Z,0.30
2022-11-25T11:15:47.642Z,0.30
2022-11-25T11:18:26.161Z,0.30
2022-11-25T11:20:58.855Z,0.30
2022-11-25T11:23:27.106Z,0.20
2022-11-25T11:26:00.731Z,0.20
2022-11-25T11:28:37.296Z,0.20
2022-11-25T11:31:15.374Z,0.20
2022-11-25T11:33:53.233Z,0.30
2022-11-25T11:36:26.190Z,0.20
2022-11-25T11:38:56.694Z,0.20
2022-11-25T11:42:00.872Z,0.30
2022-11-25T11:44:39.600Z,0.40
2022-11-25T11:47:15.537Z,0.30
2022-11-25T11:49:54.362Z,0.30
2022-11-25T11:52:40.364Z,0.20
2022-11-25T11:55:26.074Z,0.20
2022-11-25T11:58:16.657Z,0.20
2022-11-25T12:00:58.628Z,0.20
2022-11-25T12:03:27.623Z,0.20
2022-11-25T12:05:57.476Z,0.10
2022-11-25T12:08:43.454Z,0.10
2022-11-25T12:11:19.035Z,0.00
2022-11-25T12:14:24.672Z,0.10
2022-11-25T12:16:57.922Z,0.10
2022-11-25T12:19:39.429Z,0.00
2022-11-25T12:22:27.043Z,0.00
2022-11-25T12:25:10.623Z,0.10
2022-11-25T12:27:47.894Z,0.10
2022-11-25T12:30:16.555Z,0.10
2022-11-25T12:32:55.891Z,0.10
2022-11-25T12:35:51.550Z,0.00
2022-11-25T12:38:33.511Z,0.10
2022-11-25T12:41:15.736Z,0.10
2022-11-25T12:44:03.058Z,0.00
2022-11-25T12:46:45.057Z,0.00
2022-11-25T12:49:26.605Z,0.10
2022-11-25T12:52:19.042Z,0.00
2022-11-25T12:54:51.776Z,0.00
2022-11-25T12:57:50.360Z,0.00
2022-11-25T13:00:42.255Z,-0.10
2022-11-25T13:03:46.843Z,-0.20
2022-11-25T13:06:29.732Z,-0.20
2022-11-25T13:09:27.190Z,-0.20
2022-11-25T13:11:54.280Z,-0.20
2022-11-25T13:15:03.873Z,-0.20
2022-11-25T13:17:42.314Z,-0.20
2022-11-25T13:20:28.571Z,-0.30
2022-11-25T13:23:14.048Z,-0.30
2022-11-25T13:25:43.681Z,-0.30
2022-11-25T13:28:25.755Z,-0.30
2022-11-25T13:30:53.545Z,-0.30
2022-11-25T13:33:20.503Z,-0.30
2022-11-25T13:35:49.755Z,-0.30
2022-11-25T13:38:57.999Z,-0.30
2022-11-25T13:41:34.647Z,-0.40
2022-11-25T13:44:22.592Z,-0.40
2022-11-25T13:46:52.469Z,-0.50
2022-11-25T13:49:25.065Z,-0.50
2022-11-25T13:51:54.979Z,-0.50
2022-11-25T13:54:24.258Z,-0.50
2022-11-25T13:57:11.418Z,-0.60
2022-11-25T14:00:26.622Z,-0.60
2022-11-25T14:02:53.657Z,-0.60
2022-11-25T14:05:55.107Z,-0.60
2022-11-25T14:08:57.772Z,-0.60
2022-11-25T14:12:05.447Z,-0.60
2022-11-25T14:14:53.718Z,-0.60
2022-11-25T14:17:38.449Z,-0.60
2022-11-25T14:20:17.429Z,-0.60
2022-11-25T14:23:08.604Z,-0.60
2022-11-25T14:26:21.122Z,-0.60
2022-11-25T14:29:03.991Z,-0.60
2022-11-25T14:31:38.161Z,-0.60
2022-11-25T14:34:29.314Z,-0.60
2022-11-25T14:37:09.899Z,-0.70
2022-11-25T14:39:45.462Z,-0.70
2022-11-25T14:42:22.000Z,-0.70
2022-11-25T14:45:00.499Z,-0.70
2022-11-25T14:47:34.586Z,-0.70
2022-11-25T14:50:33.744Z,-0.70
2022-11-25T14:52:59.550Z,-0.70
2022-11-25T14:55:31.437Z,-0.70
2022-11-25T14:57:58.647Z,-0.70
2022-11-25T15:00:25.715Z,-0.70
2022-11-25T15:03:08.015Z,-0.70
2022-11-25T15:05:41.054Z,-0.70
2022-11-25T15:08:10.619Z,-0.70
2022-11-25T15:11:01.173Z,-0.70
2022-11-25T15:13:31.297Z,-0.70
2022-11-25T15:16:06.672Z,-0.70
2022-11-25T15:18:37.041Z,-0.80
2022-11-25T15:21:05.157Z,-0.80
2022-11-25T15:23:38.288Z,-0.80
2022-11-25T15:26:17.285Z,-0.70
2022-11-25T15:28:45.884Z,-0.80
2022-11-25T15:31:18.932Z,-0.70
2022-11-25T15:33:47.477Z,-0.80
2022-11-25T15:36:14.444Z,-0.80
2022-11-25T15:38:42.688Z,-0.80
2022-11-25T15:41:49.340Z,-0.80
2022-11-25T15:44:21.138Z,-0.80
2022-11-25T15:46:59.499Z,-0.80
2022-11-25T15:49:26.680Z,-0.80
2022-11-25T15:52:11.472Z,-0.80
2022-11-25T15:54:48.468Z,-0.80
2022-11-25T15:57:23.358Z,-0.80
2022-11-25T15:59:54.762Z,-0.80
2022-11-25T16:02:36.837Z,-0.80
2022-11-25T16:05:12.702Z,-0.80
2022-11-25T16:08:18.166Z,-0.80
2022-11-25T16:10:45.099Z,-0.80
2022-11-25T16:13:22.789Z,-0.80
2022-11-25T16:16:10.328Z,-0.80
2022-11-25T16:18:48.488Z,-0.80
2022-11-25T16:21:24.517Z,-0.80
2022-11-25T16:23:57.075Z,-0.80
2022-11-25T16:26:33.384Z,-0.80
2022-11-25T16:29:02.219Z,-0.80
2022-11-25T16:31:29.125Z,-0.80
2022-11-25T16:34:18.018Z,-0.80
2022-11-25T16:36:45.043Z,-0.90
2022-11-25T16:39:13.856Z,-0.80
2022-11-25T16:41:42.499Z,-0.80
2022-11-25T16:44:20.217Z,-0.80
2022-11-25T16:46:47.233Z,-0.80
2022-11-25T16:49:15.790Z,-0.80
2022-11-25T16:51:42.948Z,-0.80
2022-11-25T16:54:10.276Z,-0.80
2022-11-25T16:56:42.333Z,-0.80
2022-11-25T16:59:35.172Z,-0.80
2022-11-25T17:02:02.948Z,-0.80
2022-11-25T17:04:29.982Z,-0.80
2022-11-25T17:07:31.247Z,-0.80
2022-11-25T17:09:46.809Z,-0.80
2022-11-25T17:12:28.386Z,-0.80
2022-11-25T17:14:57.457Z,-0.80
2022-11-25T17:17:27.348Z,-0.80
2022-11-25T17:19:54.552Z,-0.80
2022-11-25T17:22:34.661Z,-0.80
2022-11-25T17:25:05.200Z,-0.80
2022-11-25T17:27:33.522Z,-0.80
2022-11-25T17:30:04.578Z,-0.80
2022-11-25T17:32:34.984Z,-0.80
2022-11-25T17:35:02.299Z,-0.80
2022-11-25T17:37:31.294Z,-0.80
2022-11-25T17:39:59.970Z,-0.80
2022-11-25T17:42:34.371Z,-0.80
2022-11-25T17:45:04.928Z,-0.70
2022-11-25T17:47:31.810Z,-0.70
2022-11-25T17:49:59.983Z,-0.80
2022-11-25T17:52:29.174Z,-0.70
2022-11-25T17:54:59.271Z,-0.70
2022-11-25T17:57:29.789Z,-0.80
2022-11-25T17:59:56.756Z,-0.80
2022-11-25T18:02:23.760Z,-0.80
2022-11-25T18:04:50.748Z,-0.80
2022-11-25T18:07:18.717Z,-0.80
2022-11-25T18:09:45.977Z,-0.80
2022-11-25T18:12:23.334Z,-0.80
2022-11-25T18:14:50.300Z,-0.80
2022-11-25T18:17:19.081Z,-0.80
2022-11-25T18:19:51.459Z,-0.80
2022-11-25T18:22:23.623Z,-0.80
2022-11-25T18:24:50.553Z,-0.80
2022-11-25T18:27:28.684Z,-0.80
2022-11-25T18:29:59.179Z,-0.80
2022-11-25T18:32:28.257Z,-0.80
2022-11-25T18:34:55.156Z,-0.80
2022-11-25T18:37:24.644Z,-0.80
2022-11-25T18:39:51.620Z,-0.80
2022-11-25T18:42:28.955Z,-0.80
2022-11-25T18:44:58.272Z,-0.80
2022-11-25T18:47:25.152Z,-0.80
2022-11-25T18:49:55.832Z,-0.80
2022-11-25T18:52:24.213Z,-0.90
2022-11-25T18:54:51.268Z,-0.90
2022-11-25T18:57:21.990Z,-0.90
2022-11-25T19:00:10.262Z,-0.90
2022-11-25T19:02:37.457Z,-0.90
2022-11-25T19:05:32.355Z,-0.90
2022-11-25T19:07:59.543Z,-0.90
2022-11-25T19:10:30.782Z,-0.90
2022-11-25T19:13:01.897Z,-0.80
2022-11-25T19:15:28.924Z,-0.80
2022-11-25T19:18:02.595Z,-0.80
2022-11-25T19:20:30.388Z,-0.90
2022-11-25T19:23:00.811Z,-0.80
2022-11-25T19:25:30.497Z,-0.80
2022-11-25T19:27:59.665Z,-0.80
2022-11-25T19:30:31.546Z,-0.80
2022-11-25T19:33:01.946Z,-0.80
2022-11-25T19:35:40.184Z,-0.80
2022-11-25T19:38:25.311Z,-0.80
2022-11-25T19:40:55.192Z,-0.80
2022-11-25T19:43:23.590Z,-0.80
2022-11-25T19:45:53.416Z,-0.90
2022-11-25T19:48:22.456Z,-0.80
2022-11-25T19:51:01.291Z,-0.80
2022-11-25T19:53:33.372Z,-0.80
2022-11-25T19:56:04.743Z,-0.80
2022-11-25T19:58:34.319Z,-0.80
2022-11-25T20:01:06.021Z,-0.80
2022-11-25T20:03:33.235Z,-0.90
2022-11-25T20:06:00.119Z,-0.90
2022-11-25T20:08:28.968Z,-0.90
2022-11-25T20:10:56.746Z,-0.90
2022-11-25T20:13:26.395Z,-0.90
2022-11-25T20:15:54.905Z,-0.90
2022-11-25T20:18:26.259Z,-0.90
2022-11-25T20:21:02.018Z,-0.90
2022-11-25T20:23:44.227Z,-0.90
2022-11-25T20:26:34.371Z,-0.90
2022-11-25T20:29:01.881Z,-0.90
2022-11-25T20:31:30.778Z,-0.80
2022-11-25T20:33:58.097Z,-0.80
2022-11-25T20:36:31.267Z,-0.90
2022-11-25T20:38:59.811Z,-0.90
2022-11-25T20:41:28.186Z,-0.80
2022-11-25T20:43:56.599Z,-0.90
2022-11-25T20:46:29.064Z,-0.90
2022-11-25T20:49:02.612Z,-0.90
2022-11-25T20:51:29.613Z,-0.90
2022-11-25T20:54:00.944Z,-0.90
2022-11-25T20:56:28.209Z,-0.90
2022-11-25T20:58:55.722Z,-0.90
2022-11-25T21:01:23.015Z,-0.90
2022-11-25T21:03:50.452Z,-0.90
2022-11-25T21:06:25.758Z,-0.90
2022-11-25T21:08:54.573Z,-0.90
2022-11-25T21:11:22.790Z,-0.90
2022-11-25T21:13:50.336Z,-0.90
2022-11-25T21:16:17.221Z,-0.90
2022-11-25T21:18:44.555Z,-0.90
2022-11-25T21:21:30.006Z,-0.90
2022-11-25T21:23:57.292Z,-0.90
2022-11-25T21:26:27.141Z,-0.90
2022-11-25T21:28:54.696Z,-0.90
2022-11-25T21:31:26.192Z,-1.00
2022-11-25T21:33:59.279Z,-0.90
2022-11-25T21:36:29.347Z,-1.00
2022-11-25T21:39:03.552Z,-0.90
2022-11-25T21:41:30.504Z,-0.90
2022-11-25T21:43:57.770Z,-0.90
2022-11-25T21:46:28.960Z,-0.90
2022-11-25T21:48:55.892Z,-1.00
2022-11-25T21:51:24.408Z,-0.90
2022-11-25T21:53:52.084Z,-0.90
2022-11-25T21:56:34.624Z,-1.00
2022-11-25T21:59:03.393Z,-0.90
2022-11-25T22:01:30.419Z,-0.90
2022-11-25T22:03:57.530Z,-0.90
2022-11-25T22:06:31.983Z,-0.90
2022-11-25T22:08:58.905Z,-1.00
2022-11-25T22:11:34.333Z,-1.00
2022-11-25T22:14:04.102Z,-0.90
2022-11-25T22:16:34.560Z,-1.00
2022-11-25T22:19:01.945Z,-1.00
2022-11-25T22:21:28.897Z,-1.00
2022-11-25T22:23:55.884Z,-1.00
2022-11-25T22:26:33.533Z,-1.00
2022-11-25T22:29:01.512Z,-1.00
2022-11-25T22:31:29.203Z,-1.00
2022-11-25T22:33:56.652Z,-1.00
2022-11-25T22:36:34.344Z,-1.00
2022-11-25T22:39:22.253Z,-1.00
2022-11-25T22:42:00.117Z,-1.00
2022-11-25T22:44:37.968Z,-1.00
2022-11-25T22:47:06.150Z,-0.90
2022-11-25T22:49:49.600Z,-0.90
2022-11-25T22:52:21.206Z,-1.00
2022-11-25T22:54:49.345Z,-0.90
2022-11-25T22:57:17.344Z,-0.90
2022-11-25T22:59:44.276Z,-1.00
2022-11-25T23:02:23.794Z,-1.00
2022-11-25T23:04:55.677Z,-1.00
2022-11-25T23:07:23.437Z,-1.00
2022-11-25T23:09:50.737Z,-1.00
2022-11-25T23:12:18.197Z,-1.00
2022-11-25T23:14:45.109Z,-1.10
2022-11-25T23:17:32.224Z,-1.10
2022-11-25T23:19:59.067Z,-1.10
2022-11-25T23:22:25.907Z,-1.10
2022-11-25T23:24:52.740Z,-1.10
2022-11-25T23:27:19.554Z,-1.00
2022-11-25T23:29:46.409Z,-1.00
2022-11-25T23:32:20.497Z,-1.00
2022-11-25T23:34:50.517Z,-1.10
2022-11-25T23:37:17.603Z,-1.10
2022-11-25T23:39:51.289Z,-1.10
2022-11-25T23:42:19.585Z,-1.10
2022-11-25T23:44:46.660Z,-1.00
2022-11-25T23:47:20.402Z,-1.10
2022-11-25T23:49:51.064Z,-1.10
2022-11-25T23:52:24.556Z,-1.10
2022-11-25T23:54:52.532Z,-1.10
2022-11-25T23:57:23.698Z,-1.10
2022-11-25T23:59:51.385Z,-1.10
